Startpagina
METAR-TAF:

METAR-TAF

Vliegvelden :

Flughafen Dortmund

Dortmund, Duitsland

breedte: 51-31N, lengte: 007-37E, hoogte: 127 m

Actueel weer

Dit bericht is 19 minuten geleden gemaakt, om 18:20 UTC
Wind 7 kt uit het oostnoordoosten, variërend tussen het noordnoordoosten en het oosten
Temperatuur 19°C
Vochtigheid 43%
Druk 1022 hPa
Zicht 10 km of meer

METAR: EDLW 311820Z AUTO 07007KT 030V090 9999 // NCD 19/06 Q1022

Tijdstip: 20:39 (18:39 UTC)

Verwachting

Dit bericht is 7 uur en het 39 minuten geleden gemaakt, om 11:00 UTC
Verwachting geldig van 31 om 12 UTC tot 01 om 12 UTC
Wind 10 kt uit het oostnoordoosten
Zicht 10 km of meer
geen wolken onder 1500 m en geen cumulonimbus
Wijzigt naar
van 31 om 18 UTC tot 31 om 20 UTC
Wind 4 kt uit het noordoosten
Wijzigt naar
van 01 om 07 UTC tot 01 om 10 UTC
Wind 10 kt uit het oostnoordoosten

TAF: EDLW 311100Z 3112/0112 07010KT CAVOK BECMG 3118/3120 05004KT BECMG 0107/0110 07010KT

Waarnemingen en weersverwachtingen van meer dan 4000 vliegvelden (METAR en TAF).

De beschikbare stations zijn de gele en rode punten op de kaart.

Ga met uw muis naar het station om de naam te zien.

Klik dan om waarnemingen en weersverwachtingen te zien.

kaart wijzigen: klik op de groene knoppen met een zwart kruis om in te zoomen, op de groene knop met een streepje om uit te zoomen of op de groene pijlen voor aangrenzende kaarten.


METAR-TAF: